Time;durP1;ratioP1;P1;durP2;ratioP2;P2;SDS_P1;SDS_P2;PMS_P1;PMS_P2;Temp;Humidity;BMP_temperature;BMP_pressure;BME280_temperature;BME280_humidity;BME280_pressure;Samples;Min_cycle;Max_cycle;Signal;HPM_P1;HPM_P2
2023/06/14 04:21:28;;;;;;;12.70;5.90;;;;;;;10.49;70.14;96172.00;2093930;27;20561;-60
2023/06/14 09:17:51;;;;;;;9.88;4.47;;;;;;;24.62;40.65;96329.06;2085966;28;20563;-58
2023/06/14 09:20:10;;;;;;;12.98;4.25;;;;;;;24.54;40.28;96334.38;2100351;27;21072;-58
2023/06/14 09:22:24;;;;;;;10.13;3.88;;;;;;;24.32;40.63;96333.16;2099759;27;20916;-58
2023/06/14 09:24:39;;;;;;;9.13;4.00;;;;;;;24.33;40.67;96343.66;2091229;28;20583;-59
2023/06/14 09:26:53;;;;;;;9.70;4.78;;;;;;;23.93;41.70;96335.34;2096945;27;20568;-58
2023/06/14 09:29:16;;;;;;;9.05;4.13;;;;;;;23.88;41.90;96334.94;2091799;28;20570;-58
2023/06/14 09:31:37;;;;;;;10.63;5.22;;;;;;;24.35;41.29;96346.16;2100212;27;20574;-59
2023/06/14 09:34:05;;;;;;;9.20;4.35;;;;;;;24.81;40.47;96341.28;2102597;27;20557;-58
2023/06/14 09:36:42;;;;;;;7.57;4.05;;;;;;;25.17;40.36;96343.63;2098612;27;20897;-58
2023/06/14 09:37:44;;;;;;;8.15;4.38;;;;;;;25.40;39.91;96330.44;2091054;28;20188;-58
2023/06/14 09:40:07;;;;;;;12.98;4.75;;;;;;;25.31;40.03;96347.47;2084559;28;20588;-58
2023/06/14 09:41:08;;;;;;;8.80;4.40;;;;;;;25.25;40.09;96340.97;2077312;28;20292;-58
2023/06/14 09:43:33;;;;;;;11.60;4.35;;;;;;;25.17;39.58;96343.63;2084296;28;20557;-58
2023/06/14 09:44:35;;;;;;;9.05;4.15;;;;;;;25.51;39.30;96337.28;2081722;28;20264;-58
2023/06/14 09:47:09;;;;;;;6.22;4.07;;;;;;;25.28;39.88;96345.13;2082689;28;20572;-58
2023/06/14 09:48:11;;;;;;;7.45;3.97;;;;;;;25.48;39.54;96339.47;2082143;28;20204;-58
2023/06/14 09:49:13;;;;;;;13.43;4.68;;;;;;;25.46;39.58;96341.44;2082289;28;20632;-58
2023/06/14 09:51:50;;;;;;;9.93;4.95;;;;;;;25.95;38.80;96345.84;2082534;28;20561;-58
2023/06/14 09:52:57;;;;;;;9.32;4.15;;;;;;;25.70;38.82;96344.09;2081881;28;20224;-58
2023/06/14 09:54:01;;;;;;;11.23;3.83;;;;;;;25.37;38.05;96341.47;2082147;28;20698;-58
2023/06/14 09:55:12;;;;;;;7.03;4.20;;;;;;;24.85;37.87;96349.78;2081983;28;20219;-58
2023/06/14 09:56:47;;;;;;;7.03;3.63;;;;;;;25.32;37.54;96343.78;2080295;28;20280;-58
2023/06/14 09:57:50;;;;;;;9.77;4.35;;;;;;;25.07;38.75;96342.97;2073872;28;20229;-59
2023/06/14 09:58:56;;;;;;;7.85;4.32;;;;;;;25.40;39.08;96337.63;2081022;28;20197;-58
2023/06/14 10:00:12;;;;;;;5.57;3.83;;;;;;;25.41;38.98;96340.13;2081741;28;20203;-58
2023/06/14 10:01:14;;;;;;;9.52;4.30;;;;;;;25.63;38.59;96340.44;2080446;28;20197;-58
2023/06/14 10:02:26;;;;;;;7.72;4.28;;;;;;;25.82;36.88;96346.41;2078348;28;20231;-58
2023/06/14 10:03:29;;;;;;;6.45;3.70;;;;;;;25.75;37.27;96344.41;2079876;28;20683;-58
2023/06/14 10:05:08;;;;;;;9.30;3.97;;;;;;;26.14;37.12;96352.66;2081637;28;20200;-58
2023/06/14 10:06:11;;;;;;;15.43;3.83;;;;;;;26.02;36.69;96350.34;2080777;28;20197;-58
2023/06/14 10:07:19;;;;;;;12.43;3.38;;;;;;;26.14;35.76;96350.00;2082036;28;20304;-58
2023/06/14 10:08:27;;;;;;;8.93;4.00;;;;;;;26.19;35.64;96345.78;2083042;28;20200;-58
2023/06/14 10:09:30;;;;;;;7.75;4.20;;;;;;;25.89;35.63;96342.03;2082275;28;20199;-58
2023/06/14 10:10:34;;;;;;;6.65;4.13;;;;;;;25.36;37.18;96341.66;2082177;28;20204;-58
2023/06/14 10:11:36;;;;;;;8.30;3.85;;;;;;;25.55;37.15;96341.28;2080147;28;20212;-59
2023/06/14 10:12:39;;;;;;;8.48;3.22;;;;;;;25.68;36.58;96345.28;2081429;28;20641;-58
2023/06/14 10:13:41;;;;;;;8.73;3.58;;;;;;;25.85;36.01;96340.69;2080561;28;20201;-58
2023/06/14 10:14:42;;;;;;;10.18;4.18;;;;;;;25.84;36.70;96342.56;2079694;28;20204;-58
2023/06/14 10:16:06;;;;;;;11.50;4.78;;;;;;;25.95;36.90;96337.84;2082804;28;20668;-58
2023/06/14 10:17:13;;;;;;;14.85;4.03;;;;;;;26.42;36.21;96336.16;2081938;28;20766;-58
2023/06/14 10:18:22;;;;;;;9.65;4.55;;;;;;;26.75;36.45;96341.34;2082109;28;20291;-58
2023/06/14 10:19:35;;;;;;;9.95;4.00;;;;;;;26.52;36.75;96336.75;2082752;28;20212;-58
2023/06/14 10:20:50;;;;;;;6.45;3.78;;;;;;;25.29;36.82;96338.78;2083864;28;20200;-58
2023/06/14 10:22:07;;;;;;;7.72;4.18;;;;;;;24.85;37.48;96333.75;2081997;28;20221;-59
2023/06/14 10:23:24;;;;;;;5.50;3.42;;;;;;;24.63;37.80;96336.03;2080047;28;20207;-58
2023/06/14 10:24:48;;;;;;;10.60;3.83;;;;;;;24.77;38.17;96327.44;2081293;28;20192;-59
2023/06/14 10:25:50;;;;;;;10.18;3.20;;;;;;;25.36;37.81;96331.78;2081068;28;20229;-58
2023/06/14 10:26:54;;;;;;;9.13;3.95;;;;;;;25.95;36.98;96340.50;2081230;28;20224;-58
2023/06/14 10:28:19;;;;;;;6.85;3.78;;;;;;;25.16;37.82;96331.28;2082059;28;20192;-58
2023/06/14 10:29:20;;;;;;;7.78;3.33;;;;;;;25.86;36.98;96339.69;2081758;28;20223;-58
2023/06/14 10:30:25;;;;;;;7.82;3.67;;;;;;;25.64;36.55;96327.91;2081396;28;20201;-58
2023/06/14 10:31:48;;;;;;;9.50;3.72;;;;;;;25.99;34.35;96328.44;2081359;28;20259;-58
2023/06/14 10:33:07;;;;;;;11.75;4.15;;;;;;;24.92;35.21;96318.75;2079624;28;20260;-59
2023/06/14 10:34:09;;;;;;;11.63;3.50;;;;;;;25.78;35.54;96326.38;2081580;28;20193;-58
2023/06/14 10:35:16;;;;;;;8.43;3.50;;;;;;;26.26;34.95;96326.34;2081928;28;20284;-58
2023/06/14 10:36:33;;;;;;;8.75;3.70;;;;;;;26.51;35.56;96332.41;2081900;28;20198;-58
2023/06/14 10:37:35;;;;;;;5.45;3.17;;;;;;;26.93;34.84;96328.50;2080248;28;20295;-58
2023/06/14 10:38:38;;;;;;;8.55;3.78;;;;;;;27.15;33.82;96337.53;2081780;28;20276;-58
2023/06/14 10:39:47;;;;;;;7.82;3.60;;;;;;;26.72;33.50;96332.59;2081792;28;20258;-58
2023/06/14 10:40:53;;;;;;;9.05;3.65;;;;;;;26.43;34.57;96341.31;2081442;28;20343;-58
2023/06/14 10:41:57;;;;;;;7.07;3.65;;;;;;;26.43;34.39;96337.81;2079973;28;20225;-58
2023/06/14 10:42:59;;;;;;;15.98;3.80;;;;;;;26.46;34.46;96345.50;2081982;28;20201;-58
2023/06/14 10:44:12;;;;;;;13.20;3.58;;;;;;;26.81;33.74;96336.09;2078784;28;20706;-58
2023/06/14 10:45:14;;;;;;;10.63;4.00;;;;;;;25.98;33.90;96335.66;2080918;28;20776;-58
2023/06/14 10:46:21;;;;;;;6.45;4.18;;;;;;;25.69;34.78;96333.56;2082633;28;20404;-58
2023/06/14 10:47:26;;;;;;;5.90;3.78;;;;;;;26.34;34.09;96337.03;2082467;28;20714;-58
2023/06/14 10:48:30;;;;;;;9.98;3.83;;;;;;;26.72;34.34;96331.78;2082343;28;20232;-58
2023/06/14 10:49:42;;;;;;;9.95;3.75;;;;;;;27.24;34.33;96340.16;2082006;28;20239;-58
2023/06/14 10:50:47;;;;;;;11.15;4.38;;;;;;;27.47;34.74;96324.03;2083105;28;20659;-58
2023/06/14 10:51:52;;;;;;;9.65;3.80;;;;;;;27.47;34.01;96329.41;2081062;28;20215;-58
2023/06/14 10:52:54;;;;;;;5.10;3.50;;;;;;;27.39;34.34;96341.03;2084307;28;20212;-57
2023/06/14 10:53:58;;;;;;;7.63;3.70;;;;;;;27.31;34.10;96339.22;2082555;28;20213;-59
2023/06/14 10:55:05;;;;;;;8.25;4.00;;;;;;;24.90;35.96;96337.63;2080824;28;20204;-58
2023/06/14 10:56:07;;;;;;;15.93;4.20;;;;;;;25.60;36.01;96343.44;2084826;28;20288;-58
2023/06/14 10:57:08;;;;;;;10.38;3.40;;;;;;;26.81;35.28;96346.81;2082881;28;20684;-58
2023/06/14 10:58:10;;;;;;;6.93;3.90;;;;;;;27.20;34.17;96340.50;2081960;28;20203;-58
2023/06/14 10:59:11;;;;;;;11.40;4.10;;;;;;;27.41;33.17;96347.03;2083079;28;20196;-58
2023/06/14 11:00:17;;;;;;;9.23;3.10;;;;;;;26.49;34.48;96340.63;2081931;28;20778;-58
2023/06/14 11:01:49;;;;;;;12.65;3.30;;;;;;;27.09;33.17;96332.88;2078406;28;20204;-58
2023/06/14 11:02:55;;;;;;;4.88;3.53;;;;;;;27.32;33.75;96340.88;2075791;28;20229;-58
2023/06/14 11:04:08;;;;;;;4.45;3.03;;;;;;;27.64;33.05;96336.28;2076490;28;20222;-58
2023/06/14 11:05:14;;;;;;;10.23;3.40;;;;;;;27.97;32.27;96332.38;2073095;28;20227;-58
2023/06/14 11:06:23;;;;;;;7.95;3.25;;;;;;;27.63;31.90;96333.75;2075265;28;20193;-58
2023/06/14 11:08:21;;;;;;;7.95;3.15;;;;;;;27.62;32.29;96329.44;2075964;28;20283;-58
2023/06/14 11:09:41;;;;;;;6.22;3.50;;;;;;;27.59;32.28;96338.66;2071683;28;20288;-59
2023/06/14 11:10:45;;;;;;;6.22;3.90;;;;;;;27.29;32.92;96327.84;2071294;28;20193;-58
2023/06/14 11:11:48;;;;;;;16.25;4.25;;;;;;;26.69;33.26;96332.13;2070930;28;20260;-59
2023/06/14 11:12:53;;;;;;;14.13;3.63;;;;;;;27.42;32.88;96329.13;2071632;28;20194;-59
2023/06/14 11:13:55;;;;;;;5.85;3.35;;;;;;;27.82;32.72;96325.16;2071627;28;20194;-59
2023/06/14 11:14:56;;;;;;;9.45;3.58;;;;;;;28.14;31.76;96333.88;2074379;28;20202;-58
2023/06/14 11:15:58;;;;;;;9.73;3.92;;;;;;;27.38;31.70;96321.38;2076293;28;20189;-58
2023/06/14 11:17:00;;;;;;;12.13;3.78;;;;;;;27.57;32.46;96329.16;2074538;28;20222;-58
2023/06/14 11:18:06;;;;;;;5.93;3.15;;;;;;;28.29;32.79;96335.69;2075535;28;20204;-58
2023/06/14 11:19:08;;;;;;;6.35;3.15;;;;;;;28.44;30.73;96339.22;2077915;28;20194;-58
2023/06/14 11:20:16;;;;;;;7.22;3.83;;;;;;;28.22;31.31;96326.75;2077993;28;20247;-58
2023/06/14 11:21:20;;;;;;;12.90;3.53;;;;;;;28.52;32.13;96333.72;2075758;28;20197;-58
2023/06/14 11:22:22;;;;;;;9.57;3.33;;;;;;;28.33;31.70;96326.28;2075705;28;20244;-58
2023/06/14 11:23:23;;;;;;;7.82;3.15;;;;;;;28.48;31.61;96328.91;2075914;28;20244;-59
2023/06/14 11:24:25;;;;;;;4.18;2.72;;;;;;;29.07;31.46;96330.56;2077613;28;20201;-59
2023/06/14 11:25:29;;;;;;;9.57;3.70;;;;;;;28.97;31.56;96330.06;2077336;28;20581;-58
2023/06/14 11:26:34;;;;;;;7.60;3.05;;;;;;;29.06;31.22;96333.47;2077078;28;20197;-58
2023/06/14 11:27:36;;;;;;;7.38;3.00;;;;;;;28.99;31.07;96325.34;2076652;28;20747;-58
2023/06/14 11:28:40;;;;;;;4.10;3.43;;;;;;;29.00;31.40;96335.03;2076794;28;20193;-58
2023/06/14 11:29:49;;;;;;;8.90;3.40;;;;;;;28.73;30.72;96337.47;2077342;28;20461;-58
2023/06/14 11:31:01;;;;;;;5.00;3.10;;;;;;;28.59;31.27;96339.16;2076656;28;20555;-58
2023/06/14 11:32:07;;;;;;;11.63;3.50;;;;;;;28.64;31.40;96334.03;2075423;28;20993;-58
2023/06/14 11:33:11;;;;;;;3.88;2.95;;;;;;;29.12;30.76;96344.25;2076557;28;20572;-59
2023/06/14 11:34:13;;;;;;;6.63;3.60;;;;;;;27.92;31.27;96332.94;2075273;28;20259;-58
2023/06/14 11:35:15;;;;;;;4.80;2.67;;;;;;;28.48;31.10;96343.16;2078452;28;20441;-59
2023/06/14 11:36:17;;;;;;;5.47;2.95;;;;;;;27.56;32.02;96330.97;2076553;28;20197;-59
2023/06/14 11:37:19;;;;;;;15.60;3.30;;;;;;;28.58;31.23;96336.66;2075174;28;21213;-59
2023/06/14 11:38:21;;;;;;;6.13;2.80;;;;;;;28.32;30.94;96325.41;2076202;28;20423;-59
2023/06/14 11:39:24;;;;;;;8.67;3.23;;;;;;;27.99;30.71;96327.66;2076371;28;20472;-58
2023/06/14 11:40:27;;;;;;;7.93;3.27;;;;;;;28.34;31.05;96328.75;2076962;28;20837;-58
2023/06/14 11:41:55;;;;;;;7.47;2.83;;;;;;;28.12;31.48;96322.50;2076216;28;20917;-58
2023/06/14 11:43:00;;;;;;;8.98;3.78;;;;;;;27.54;31.71;96324.94;2072694;28;20821;-59
2023/06/14 11:44:03;;;;;;;10.63;3.28;;;;;;;27.61;31.91;96325.06;2074734;28;20205;-58
2023/06/14 11:45:08;;;;;;;11.70;3.03;;;;;;;26.81;31.94;96330.75;2074073;28;20206;-58
2023/06/14 11:46:15;;;;;;;6.07;2.75;;;;;;;26.99;32.32;96334.97;2075766;28;20232;-58
2023/06/14 11:47:17;;;;;;;6.75;3.38;;;;;;;27.05;32.04;96324.38;2076653;28;20221;-59
2023/06/14 11:48:18;;;;;;;10.25;3.50;;;;;;;27.61;31.95;96323.22;2075003;28;20225;-58
2023/06/14 11:49:20;;;;;;;8.02;2.78;;;;;;;28.51;31.66;96332.03;2076396;28;20241;-58
2023/06/14 11:50:22;;;;;;;5.78;3.20;;;;;;;28.55;31.14;96326.31;2076987;28;20201;-58
2023/06/14 11:51:25;;;;;;;13.95;3.85;;;;;;;27.77;31.53;96324.03;2076525;28;20613;-58
2023/06/14 11:52:26;;;;;;;5.20;2.88;;;;;;;27.66;32.14;96326.16;2077464;28;20257;-59
2023/06/14 11:53:28;;;;;;;9.52;3.50;;;;;;;26.95;33.08;96317.59;2076435;28;20204;-58
2023/06/14 11:54:30;;;;;;;10.07;3.80;;;;;;;26.92;32.72;96318.78;2075700;28;20257;-58
2023/06/14 11:55:32;;;;;;;6.95;3.35;;;;;;;26.81;33.52;96320.03;2075948;28;20198;-58
2023/06/14 11:56:36;;;;;;;4.22;3.03;;;;;;;26.82;33.43;96318.22;2075687;28;20243;-59
2023/06/14 11:57:38;;;;;;;7.20;3.22;;;;;;;26.32;34.20;96323.84;2076072;28;20197;-58
2023/06/14 11:58:43;;;;;;;6.88;3.00;;;;;;;26.35;33.84;96322.66;2077692;28;20221;-58
2023/06/14 11:59:46;;;;;;;8.73;3.28;;;;;;;26.85;33.48;96329.38;2075518;28;20205;-58
2023/06/14 12:00:49;;;;;;;8.27;2.65;;;;;;;27.59;32.75;96327.09;2076548;28;20245;-58
2023/06/14 12:01:56;;;;;;;6.75;3.30;;;;;;;28.10;32.23;96332.59;2075235;28;20225;-59
2023/06/14 12:02:57;;;;;;;10.10;3.20;;;;;;;28.15;32.33;96326.66;2075758;28;20194;-58
2023/06/14 12:04:00;;;;;;;11.20;3.47;;;;;;;28.21;31.61;96331.28;2076021;28;20197;-58
2023/06/14 12:05:07;;;;;;;16.08;3.53;;;;;;;28.27;31.30;96327.84;2072885;28;20202;-58
2023/06/14 12:06:09;;;;;;;11.35;3.45;;;;;;;27.85;32.14;96330.16;2073292;28;20201;-58
2023/06/14 12:07:17;;;;;;;6.97;2.87;;;;;;;27.53;32.58;96329.50;2075812;28;20230;-59
2023/06/14 12:08:19;;;;;;;4.75;3.00;;;;;;;27.38;32.22;96324.06;2076157;28;20526;-57
2023/06/14 12:09:25;;;;;;;22.10;12.65;;;;;;;27.76;32.08;96330.44;2074745;28;20201;-59
2023/06/14 12:10:27;;;;;;;16.33;10.73;;;;;;;27.76;32.34;96330.44;2075192;28;20243;-59
2023/06/14 12:11:35;;;;;;;18.65;12.68;;;;;;;27.29;32.40;96324.34;2075174;28;20246;-59
2023/06/14 12:12:38;;;;;;;11.40;4.80;;;;;;;27.39;32.67;96324.97;2073856;28;20233;-59
2023/06/14 12:13:41;;;;;;;6.33;4.10;;;;;;;27.26;32.84;96322.00;2074531;28;20663;-57
2023/06/14 12:14:42;;;;;;;6.63;3.10;;;;;;;27.52;32.65;96327.81;2074451;28;20427;-58
2023/06/14 12:15:44;;;;;;;7.32;2.90;;;;;;;27.34;33.04;96330.00;2075847;28;20423;-59
2023/06/14 12:16:46;;;;;;;5.70;3.42;;;;;;;27.59;31.98;96330.63;2073361;28;20202;-58
2023/06/14 12:17:47;;;;;;;5.10;3.17;;;;;;;27.78;32.07;96331.94;2072782;28;20244;-58
2023/06/14 12:18:50;;;;;;;6.85;2.90;;;;;;;28.17;31.91;96330.00;2076576;28;20194;-58
2023/06/14 12:19:51;;;;;;;6.80;2.80;;;;;;;28.54;31.60;96330.00;2075747;28;20343;-58
2023/06/14 12:20:53;;;;;;;8.63;3.65;;;;;;;28.64;31.73;96325.16;2076572;28;20193;-59
2023/06/14 12:21:58;;;;;;;6.13;3.50;;;;;;;29.20;31.34;96329.84;2074328;28;20229;-58
2023/06/14 12:23:03;;;;;;;9.77;3.22;;;;;;;29.48;31.24;96323.69;2075866;28;20484;-58
2023/06/14 12:24:06;;;;;;;12.52;3.30;;;;;;;29.29;30.35;96325.19;2075823;28;20201;-58
2023/06/14 12:25:09;;;;;;;7.40;3.00;;;;;;;29.45;30.50;96329.47;2075925;28;20216;-59
2023/06/14 12:26:13;;;;;;;7.93;3.63;;;;;;;29.70;29.84;96321.78;2075890;28;20229;-58
2023/06/14 12:27:15;;;;;;;18.03;2.90;;;;;;;29.36;30.65;96326.09;2075431;28;20482;-58
2023/06/14 12:28:17;;;;;;;15.50;3.57;;;;;;;28.91;30.54;96320.09;2076159;28;20492;-58
2023/06/14 12:29:19;;;;;;;8.97;3.20;;;;;;;29.05;30.07;96321.88;2074437;28;20483;-58
2023/06/14 12:30:21;;;;;;;4.77;2.87;;;;;;;29.28;31.05;96331.59;2075392;28;20457;-58
2023/06/14 12:31:23;;;;;;;4.50;2.80;;;;;;;28.47;31.49;96327.25;2076720;28;20505;-58
2023/06/14 12:32:25;;;;;;;6.07;2.60;;;;;;;28.04;32.50;96327.97;2076036;28;20549;-58
2023/06/14 12:33:27;;;;;;;6.23;3.10;;;;;;;28.20;31.68;96316.19;2076524;28;20434;-58
2023/06/14 12:34:29;;;;;;;4.80;2.63;;;;;;;28.58;31.56;96320.53;2078020;28;20442;-58
2023/06/14 12:35:30;;;;;;;8.20;3.47;;;;;;;28.43;31.36;96317.91;2076642;28;20419;-58
2023/06/14 12:36:32;;;;;;;4.60;2.63;;;;;;;28.59;31.82;96316.84;2074954;28;20418;-58
2023/06/14 12:37:34;;;;;;;4.53;2.60;;;;;;;28.22;31.76;96310.66;2075576;28;20841;-58
2023/06/14 12:38:36;;;;;;;4.70;3.10;;;;;;;28.77;31.61;96321.81;2072599;28;20859;-58
2023/06/14 12:39:39;;;;;;;12.70;3.20;;;;;;;28.73;31.87;96320.53;2073005;28;20938;-58
2023/06/14 12:40:42;;;;;;;11.33;2.90;;;;;;;27.78;32.87;96321.19;2075372;28;20776;-58
2023/06/14 12:41:43;;;;;;;11.80;3.30;;;;;;;27.88;31.94;96328.13;2076384;28;20508;-58
2023/06/14 12:42:47;;;;;;;6.60;2.77;;;;;;;27.49;32.25;96309.44;2075285;28;20423;-58
2023/06/14 12:43:48;;;;;;;4.72;2.92;;;;;;;27.22;32.73;96324.22;2075347;28;20427;-58
2023/06/14 12:44:50;;;;;;;6.13;3.22;;;;;;;28.06;32.69;96322.41;2073880;28;20198;-57
2023/06/14 12:45:51;;;;;;;7.07;3.38;;;;;;;28.62;31.68;96319.97;2075470;28;20246;-58
2023/06/14 12:46:54;;;;;;;8.30;3.42;;;;;;;29.30;31.43;96325.00;2076025;28;20221;-58
2023/06/14 12:47:56;;;;;;;5.30;3.30;;;;;;;29.26;31.38;96320.19;2076166;28;20206;-58
2023/06/14 12:48:57;;;;;;;6.65;3.22;;;;;;;29.54;30.30;96320.22;2072435;28;20438;-58
2023/06/14 12:50:02;;;;;;;11.13;3.70;;;;;;;29.30;30.00;96321.50;2075379;28;20202;-58
2023/06/14 12:51:03;;;;;;;5.70;2.97;;;;;;;29.51;30.40;96323.31;2076112;28;20478;-58
2023/06/14 12:52:05;;;;;;;7.50;3.73;;;;;;;29.78;30.28;96335.06;2073420;28;20492;-58
2023/06/14 12:53:07;;;;;;;15.53;3.60;;;;;;;29.35;29.39;96324.41;2074594;28;20498;-58
2023/06/14 12:54:08;;;;;;;5.57;2.80;;;;;;;29.59;29.17;96323.16;2075931;28;20434;-58
2023/06/14 12:55:10;;;;;;;19.33;11.17;;;;;;;29.49;30.43;96330.72;2075728;28;20461;-58
2023/06/14 12:56:11;;;;;;;23.23;18.37;;;;;;;29.44;30.06;96325.94;2076643;28;20426;-58
2023/06/14 12:57:13;;;;;;;66.73;47.50;;;;;;;29.52;29.60;96333.03;2071854;28;20463;-57
2023/06/14 12:58:16;;;;;;;18.90;12.00;;;;;;;29.68;28.96;96326.53;2072541;28;20497;-57
2023/06/14 12:59:18;;;;;;;10.30;4.60;;;;;;;29.56;29.52;96331.63;2076099;28;20897;-58
2023/06/14 13:00:21;;;;;;;6.33;3.00;;;;;;;28.79;30.55;96325.16;2074604;28;20430;-58
2023/06/14 13:01:22;;;;;;;4.93;3.23;;;;;;;27.02;32.67;96319.38;2072343;28;21181;-60
2023/06/14 13:02:25;;;;;;;6.33;3.10;;;;;;;27.22;33.15;96324.22;2071884;28;20462;-57
2023/06/14 13:03:27;;;;;;;5.90;3.40;;;;;;;27.23;33.03;96327.75;2077720;28;20433;-58
2023/06/14 13:04:29;;;;;;;4.83;2.90;;;;;;;26.96;33.48;96321.94;2077083;28;20462;-58
2023/06/14 13:05:33;;;;;;;6.93;3.60;;;;;;;26.48;34.00;96330.09;2072189;28;20499;-58
2023/06/14 13:06:34;;;;;;;11.65;3.40;;;;;;;26.88;33.76;96323.66;2074483;28;20889;-58
2023/06/14 13:07:36;;;;;;;8.87;3.33;;;;;;;27.53;32.46;96326.00;2076157;28;20598;-57
2023/06/14 13:08:37;;;;;;;7.57;3.58;;;;;;;27.86;32.70;96323.78;2074349;28;20509;-58
2023/06/14 13:09:39;;;;;;;7.72;3.30;;;;;;;27.95;32.25;96329.06;2073479;28;20647;-57
2023/06/14 13:10:40;;;;;;;12.77;3.63;;;;;;;28.10;31.74;96335.28;2072130;28;20641;-58
2023/06/14 13:11:45;;;;;;;6.60;3.50;;;;;;;28.56;31.45;96338.72;2074337;28;20657;-58
2023/06/14 13:12:47;;;;;;;5.43;2.70;;;;;;;29.07;31.47;96335.13;2076975;28;20851;-58
2023/06/14 13:13:48;;;;;;;7.72;3.05;;;;;;;28.80;31.47;96335.69;2072074;28;20636;-58
2023/06/14 13:14:50;;;;;;;13.50;3.38;;;;;;;29.11;31.22;96334.53;2072294;28;20288;-57
2023/06/14 13:15:51;;;;;;;8.25;2.50;;;;;;;27.77;31.56;96330.25;2075947;28;20291;-58
2023/06/14 13:16:53;;;;;;;4.20;2.50;;;;;;;28.32;31.46;96336.16;2074843;28;20240;-58
2023/06/14 13:17:55;;;;;;;8.23;2.75;;;;;;;28.68;31.22;96334.53;2075098;28;20205;-57
2023/06/14 13:18:56;;;;;;;10.35;3.08;;;;;;;28.22;31.11;96322.19;2074414;28;20254;-58
2023/06/14 13:19:58;;;;;;;5.50;3.50;;;;;;;28.55;31.51;96331.69;2074755;28;20197;-58
2023/06/14 13:21:01;;;;;;;4.47;2.93;;;;;;;28.41;32.22;96336.06;2075755;28;20268;-58
2023/06/14 13:22:03;;;;;;;7.10;3.00;;;;;;;28.09;32.24;96338.97;2076094;28;20479;-59
2023/06/14 13:23:07;;;;;;;12.27;2.80;;;;;;;27.74;32.69;96327.94;2076298;28;20419;-58
2023/06/14 13:24:08;;;;;;;14.63;3.70;;;;;;;25.53;33.66;96329.91;2075245;28;20193;-58
2023/06/14 13:25:10;;;;;;;8.13;3.10;;;;;;;23.78;36.22;96331.56;2075807;28;20434;-58
2023/06/14 13:26:12;;;;;;;7.47;3.38;;;;;;;23.94;35.75;96329.00;2076524;28;20309;-58
2023/06/14 13:27:15;;;;;;;6.30;3.17;;;;;;;24.57;35.74;96328.69;2075620;28;20221;-58
2023/06/14 13:28:17;;;;;;;5.80;2.72;;;;;;;25.31;35.91;96334.09;2076397;28;20297;-58
2023/06/14 13:29:18;;;;;;;4.85;2.60;;;;;;;26.06;34.57;96334.81;2074710;28;20198;-58
2023/06/14 13:30:20;;;;;;;7.93;3.13;;;;;;;26.81;33.40;96338.78;2075495;28;20587;-58
2023/06/14 13:31:22;;;;;;;3.88;2.90;;;;;;;27.19;31.04;96329.97;2075348;28;20189;-58
2023/06/14 13:32:24;;;;;;;10.63;3.15;;;;;;;26.58;31.97;96332.56;2074944;28;20721;-58
2023/06/14 13:33:26;;;;;;;7.40;3.10;;;;;;;27.51;31.76;96333.38;2076931;28;20296;-58
2023/06/14 13:34:27;;;;;;;5.22;3.00;;;;;;;28.22;30.87;96332.94;2075480;28;20232;-58
2023/06/14 13:35:29;;;;;;;6.93;3.20;;;;;;;27.77;31.19;96332.94;2075576;28;20226;-58
2023/06/14 13:36:30;;;;;;;7.10;3.17;;;;;;;28.43;30.41;96334.00;2071496;28;20243;-58
2023/06/14 13:37:32;;;;;;;4.03;2.85;;;;;;;27.97;30.62;96332.38;2074848;28;20189;-59
2023/06/14 13:38:33;;;;;;;6.80;3.20;;;;;;;28.07;29.80;96335.63;2073632;28;20193;-58
2023/06/14 13:39:37;;;;;;;9.90;3.38;;;;;;;28.04;30.14;96336.03;2074608;28;20633;-58
2023/06/14 13:40:39;;;;;;;7.75;2.90;;;;;;;28.72;30.36;96340.34;2075051;28;20592;-58
2023/06/14 13:41:40;;;;;;;6.95;3.05;;;;;;;29.38;29.99;96339.34;2074237;28;20194;-58
2023/06/14 13:42:42;;;;;;;7.00;2.40;;;;;;;29.34;29.59;96338.88;2072054;28;20629;-58
2023/06/14 13:43:43;;;;;;;9.70;3.00;;;;;;;29.67;29.71;96330.22;2072685;28;20540;-58
2023/06/14 13:44:45;;;;;;;7.40;2.97;;;;;;;29.40;29.37;96334.59;2075846;28;20197;-59
2023/06/14 13:45:46;;;;;;;5.75;3.30;;;;;;;29.60;29.37;96335.56;2074407;28;20205;-58
2023/06/14 13:47:06;;;;;;;6.32;3.55;;;;;;;28.65;29.94;96321.47;2074390;28;20316;-58
2023/06/14 13:48:07;;;;;;;8.07;2.70;;;;;;;28.99;29.59;96330.72;2072021;28;20825;-58
2023/06/14 13:49:08;;;;;;;9.40;3.50;;;;;;;28.88;29.65;96317.78;2074793;28;20632;-58
2023/06/14 13:50:10;;;;;;;9.53;2.40;;;;;;;29.40;30.11;96323.84;2072027;28;20439;-59
2023/06/14 13:51:29;;;;;;;7.27;2.67;;;;;;;29.56;30.14;96326.25;2075509;28;20454;-58
2023/06/14 13:52:31;;;;;;;5.17;2.57;;;;;;;29.26;29.65;96315.63;2075515;28;20448;-58
2023/06/14 13:53:50;;;;;;;7.50;2.80;;;;;;;28.87;29.55;96318.81;2075009;28;20575;-58
2023/06/14 13:55:09;;;;;;;4.50;3.10;;;;;;;29.50;29.23;96318.97;2075233;28;20803;-58
2023/06/14 13:56:11;;;;;;;5.60;3.40;;;;;;;28.78;29.79;96318.91;2072076;28;20898;-58
2023/06/14 13:57:30;;;;;;;9.17;2.87;;;;;;;28.84;29.85;96315.47;2074639;28;20552;-58
2023/06/14 13:58:31;;;;;;;8.77;2.67;;;;;;;29.35;29.35;96310.16;2075332;28;20939;-58
2023/06/14 13:59:33;;;;;;;6.77;3.10;;;;;;;29.14;29.01;96320.72;2075589;28;21103;-58
2023/06/14 14:00:40;;;;;;;4.57;3.00;;;;;;;28.97;29.27;96319.31;2073905;28;20815;-58
2023/06/14 14:01:41;;;;;;;8.00;2.93;;;;;;;28.39;29.53;96312.09;2075849;28;20426;-58
2023/06/14 14:02:42;;;;;;;5.70;2.93;;;;;;;28.49;29.52;96317.13;2075554;28;20943;-59
2023/06/14 14:04:01;;;;;;;4.35;2.78;;;;;;;28.96;29.10;96310.44;2074877;28;20386;-58
2023/06/14 14:05:03;;;;;;;6.17;3.00;;;;;;;28.50;29.70;96310.75;2075440;28;20200;-58
2023/06/14 14:06:23;;;;;;;8.37;3.10;;;;;;;28.75;30.44;96315.81;2075100;28;20493;-59
2023/06/14 14:07:24;;;;;;;3.85;2.78;;;;;;;28.63;30.18;96313.59;2074875;28;20511;-58
2023/06/14 14:08:26;;;;;;;3.60;2.67;;;;;;;29.44;29.90;96308.97;2075638;28;20197;-58
2023/06/14 14:09:45;;;;;;;4.80;3.10;;;;;;;29.43;29.60;96310.84;2075249;28;20398;-58
2023/06/14 14:11:05;;;;;;;4.50;3.10;;;;;;;29.57;29.33;96316.31;2077452;28;20441;-58
2023/06/14 14:12:24;;;;;;;5.10;2.93;;;;;;;29.82;29.13;96311.28;2082231;28;20497;-58
2023/06/14 14:13:26;;;;;;;2.90;2.50;;;;;;;29.64;28.43;96311.81;2076381;28;20468;-59
2023/06/14 14:14:46;;;;;;;6.93;2.57;;;;;;;27.79;30.94;96309.44;2075267;28;20427;-59
2023/06/14 14:15:49;;;;;;;4.70;3.10;;;;;;;28.62;30.81;96314.63;2073773;28;20420;-58
2023/06/14 14:17:08;;;;;;;7.07;2.70;;;;;;;29.38;30.48;96320.50;2074489;28;20517;-58
2023/06/14 14:18:27;;;;;;;4.47;2.30;;;;;;;29.24;30.76;96316.84;2075215;28;20395;-59
2023/06/14 14:19:32;;;;;;;5.35;2.53;;;;;;;29.61;30.76;96314.88;2075765;28;20427;-58
2023/06/14 14:20:51;;;;;;;7.53;2.83;;;;;;;29.72;30.60;96318.88;2075806;28;20185;-58
2023/06/14 14:21:53;;;;;;;5.60;3.17;;;;;;;30.11;30.59;96320.16;2074940;28;20465;-59
2023/06/14 14:23:12;;;;;;;6.20;3.10;;;;;;;30.14;29.49;96314.38;2074869;28;20391;-58
2023/06/14 14:24:14;;;;;;;3.60;2.70;;;;;;;29.91;29.94;96310.13;2071922;28;20435;-58
2023/06/14 14:25:16;;;;;;;5.83;2.77;;;;;;;29.46;30.50;96309.63;2073846;28;20443;-58
2023/06/14 14:26:17;;;;;;;7.33;3.10;;;;;;;29.71;30.07;96319.91;2076450;28;20435;-58
2023/06/14 14:27:36;;;;;;;18.10;2.83;;;;;;;29.43;30.13;96326.97;2074101;28;20437;-58
2023/06/14 14:28:38;;;;;;;13.90;2.70;;;;;;;29.27;30.26;96321.88;2075780;28;20785;-58
2023/06/14 14:29:40;;;;;;;6.57;3.10;;;;;;;29.05;29.58;96323.72;2074902;28;20491;-58
2023/06/14 14:30:44;;;;;;;6.40;2.80;;;;;;;28.82;30.62;96314.84;2074936;28;20430;-58
2023/06/14 14:31:45;;;;;;;5.03;2.73;;;;;;;28.86;30.39;96317.13;2075702;28;20438;-59
2023/06/14 14:32:48;;;;;;;10.50;2.67;;;;;;;28.90;30.08;96318.41;2075675;28;20431;-59
2023/06/14 14:33:49;;;;;;;8.43;2.57;;;;;;;29.15;30.18;96314.31;2076024;28;20471;-58
2023/06/14 14:34:51;;;;;;;8.53;3.50;;;;;;;29.41;29.38;96326.34;2075804;28;21084;-59
2023/06/14 14:35:52;;;;;;;5.07;3.33;;;;;;;29.26;30.01;96320.19;2071923;28;20526;-59
2023/06/14 14:36:54;;;;;;;16.37;11.67;;;;;;;29.41;29.68;96322.84;2071821;28;20524;-59
2023/06/14 14:37:56;;;;;;;46.20;39.90;;;;;;;28.87;29.98;96321.50;2075522;28;20438;-58
2023/06/14 14:38:57;;;;;;;6.43;3.70;;;;;;;28.69;29.98;96327.31;2078211;28;20430;-58